sensor_id;sensor_type;location;lat;lon;timestamp;P1;durP1;ratioP1;P2;durP2;ratioP2
13973;SDS011;7060;43.770;4.008;2023-10-19T00:00:13;1.70;;;0.43;;
13973;SDS011;7060;43.770;4.008;2023-10-19T00:02:49;4.20;;;0.70;;
13973;SDS011;7060;43.770;4.008;2023-10-19T00:05:22;2.63;;;0.60;;
13973;SDS011;7060;43.770;4.008;2023-10-19T00:07:55;2.53;;;0.50;;
13973;SDS011;7060;43.770;4.008;2023-10-19T00:10:24;0.40;;;0.37;;
13973;SDS011;7060;43.770;4.008;2023-10-19T00:12:58;2.93;;;0.60;;
13973;SDS011;7060;43.770;4.008;2023-10-19T00:15:27;1.10;;;0.63;;
13973;SDS011;7060;43.770;4.008;2023-10-19T00:17:58;0.60;;;0.50;;
13973;SDS011;7060;43.770;4.008;2023-10-19T00:20:33;0.57;;;0.40;;
13973;SDS011;7060;43.770;4.008;2023-10-19T00:23:17;1.10;;;0.60;;
13973;SDS011;7060;43.770;4.008;2023-10-19T00:25:52;2.67;;;0.70;;
13973;SDS011;7060;43.770;4.008;2023-10-19T00:28:21;0.70;;;0.50;;
13973;SDS011;7060;43.770;4.008;2023-10-19T00:30:52;1.03;;;0.90;;
13973;SDS011;7060;43.770;4.008;2023-10-19T00:33:27;2.60;;;0.80;;
13973;SDS011;7060;43.770;4.008;2023-10-19T00:35:58;0.93;;;0.87;;
13973;SDS011;7060;43.770;4.008;2023-10-19T00:38:37;1.87;;;0.73;;
13973;SDS011;7060;43.770;4.008;2023-10-19T00:41:18;0.80;;;0.60;;
13973;SDS011;7060;43.770;4.008;2023-10-19T00:43:49;1.03;;;0.70;;
13973;SDS011;7060;43.770;4.008;2023-10-19T00:46:24;1.50;;;0.80;;
13973;SDS011;7060;43.770;4.008;2023-10-19T00:49:00;0.77;;;0.70;;
13973;SDS011;7060;43.770;4.008;2023-10-19T00:51:34;1.17;;;1.00;;
13973;SDS011;7060;43.770;4.008;2023-10-19T00:54:20;1.83;;;0.97;;
13973;SDS011;7060;43.770;4.008;2023-10-19T00:56:59;2.23;;;1.17;;
13973;SDS011;7060;43.770;4.008;2023-10-19T00:59:33;2.03;;;0.90;;
13973;SDS011;7060;43.770;4.008;2023-10-19T01:02:06;2.37;;;0.80;;
13973;SDS011;7060;43.770;4.008;2023-10-19T01:04:51;2.33;;;1.10;;
13973;SDS011;7060;43.770;4.008;2023-10-19T01:07:23;1.97;;;1.00;;
13973;SDS011;7060;43.770;4.008;2023-10-19T01:09:59;5.60;;;2.03;;
13973;SDS011;7060;43.770;4.008;2023-10-19T01:12:31;1.77;;;1.27;;
13973;SDS011;7060;43.770;4.008;2023-10-19T01:15:07;2.63;;;0.90;;
13973;SDS011;7060;43.770;4.008;2023-10-19T01:17:44;2.60;;;0.97;;
13973;SDS011;7060;43.770;4.008;2023-10-19T01:22:51;1.10;;;0.70;;
13973;SDS011;7060;43.770;4.008;2023-10-19T01:25:48;0.77;;;0.63;;
13973;SDS011;7060;43.770;4.008;2023-10-19T01:28:27;1.03;;;0.80;;
13973;SDS011;7060;43.770;4.008;2023-10-19T01:31:10;1.60;;;0.90;;
13973;SDS011;7060;43.770;4.008;2023-10-19T01:33:44;6.77;;;1.30;;
13973;SDS011;7060;43.770;4.008;2023-10-19T01:36:13;5.70;;;1.43;;
13973;SDS011;7060;43.770;4.008;2023-10-19T01:38:44;4.23;;;1.50;;
13973;SDS011;7060;43.770;4.008;2023-10-19T01:41:14;2.10;;;0.80;;
13973;SDS011;7060;43.770;4.008;2023-10-19T01:43:46;4.33;;;1.10;;
13973;SDS011;7060;43.770;4.008;2023-10-19T01:46:21;6.83;;;2.17;;
13973;SDS011;7060;43.770;4.008;2023-10-19T01:48:53;2.37;;;1.00;;
13973;SDS011;7060;43.770;4.008;2023-10-19T01:51:22;3.13;;;0.90;;
13973;SDS011;7060;43.770;4.008;2023-10-19T01:53:53;2.97;;;1.20;;
13973;SDS011;7060;43.770;4.008;2023-10-19T01:56:22;2.93;;;1.10;;
13973;SDS011;7060;43.770;4.008;2023-10-19T01:58:52;0.90;;;0.70;;
13973;SDS011;7060;43.770;4.008;2023-10-19T02:01:21;3.13;;;0.80;;
13973;SDS011;7060;43.770;4.008;2023-10-19T02:03:58;1.30;;;1.00;;
13973;SDS011;7060;43.770;4.008;2023-10-19T02:06:27;4.33;;;1.03;;
13973;SDS011;7060;43.770;4.008;2023-10-19T02:09:05;2.40;;;0.70;;
13973;SDS011;7060;43.770;4.008;2023-10-19T02:11:44;1.57;;;0.90;;
13973;SDS011;7060;43.770;4.008;2023-10-19T02:14:15;1.27;;;0.60;;
13973;SDS011;7060;43.770;4.008;2023-10-19T02:16:46;1.43;;;0.60;;
13973;SDS011;7060;43.770;4.008;2023-10-19T02:19:20;0.80;;;0.70;;
13973;SDS011;7060;43.770;4.008;2023-10-19T02:21:49;2.87;;;1.13;;
13973;SDS011;7060;43.770;4.008;2023-10-19T02:24:21;1.73;;;0.80;;
13973;SDS011;7060;43.770;4.008;2023-10-19T02:26:49;1.80;;;0.60;;
13973;SDS011;7060;43.770;4.008;2023-10-19T02:29:19;0.77;;;0.40;;
13973;SDS011;7060;43.770;4.008;2023-10-19T02:31:49;1.67;;;0.43;;
13973;SDS011;7060;43.770;4.008;2023-10-19T02:34:18;0.60;;;0.50;;
13973;SDS011;7060;43.770;4.008;2023-10-19T02:36:46;1.20;;;0.50;;
13973;SDS011;7060;43.770;4.008;2023-10-19T02:39:15;0.97;;;0.43;;
13973;SDS011;7060;43.770;4.008;2023-10-19T02:41:46;1.80;;;0.50;;
13973;SDS011;7060;43.770;4.008;2023-10-19T02:44:17;0.80;;;0.60;;
13973;SDS011;7060;43.770;4.008;2023-10-19T02:46:49;2.67;;;0.43;;
13973;SDS011;7060;43.770;4.008;2023-10-19T02:49:20;0.83;;;0.50;;
13973;SDS011;7060;43.770;4.008;2023-10-19T02:51:50;3.63;;;0.53;;
13973;SDS011;7060;43.770;4.008;2023-10-19T02:54:20;2.37;;;0.60;;
13973;SDS011;7060;43.770;4.008;2023-10-19T02:56:54;0.87;;;0.50;;
13973;SDS011;7060;43.770;4.008;2023-10-19T02:59:26;0.70;;;0.50;;
13973;SDS011;7060;43.770;4.008;2023-10-19T03:01:57;1.10;;;0.60;;
13973;SDS011;7060;43.770;4.008;2023-10-19T03:04:29;0.50;;;0.40;;
13973;SDS011;7060;43.770;4.008;2023-10-19T03:06:58;0.60;;;0.40;;
13973;SDS011;7060;43.770;4.008;2023-10-19T08:13:34;18.53;;;7.23;;
13973;SDS011;7060;43.770;4.008;2023-10-19T08:16:02;22.67;;;6.50;;
13973;SDS011;7060;43.770;4.008;2023-10-19T08:21:03;20.65;;;6.18;;
13973;SDS011;7060;43.770;4.008;2023-10-19T08:23:32;20.17;;;7.37;;
13973;SDS011;7060;43.770;4.008;2023-10-19T08:26:02;25.10;;;6.55;;
13973;SDS011;7060;43.770;4.008;2023-10-19T08:28:34;20.52;;;6.03;;
13973;SDS011;7060;43.770;4.008;2023-10-19T08:31:07;26.30;;;7.93;;
13973;SDS011;7060;43.770;4.008;2023-10-19T08:33:38;21.35;;;8.93;;
13973;SDS011;7060;43.770;4.008;2023-10-19T08:36:15;22.52;;;6.53;;
13973;SDS011;7060;43.770;4.008;2023-10-19T08:38:46;23.60;;;6.47;;
13973;SDS011;7060;43.770;4.008;2023-10-19T08:41:15;20.65;;;6.57;;
13973;SDS011;7060;43.770;4.008;2023-10-19T08:43:46;21.38;;;6.85;;
13973;SDS011;7060;43.770;4.008;2023-10-19T08:46:16;19.98;;;6.20;;
13973;SDS011;7060;43.770;4.008;2023-10-19T08:48:45;17.73;;;5.30;;
13973;SDS011;7060;43.770;4.008;2023-10-19T08:51:14;17.63;;;5.38;;
13973;SDS011;7060;43.770;4.008;2023-10-19T08:53:44;17.75;;;4.95;;
13973;SDS011;7060;43.770;4.008;2023-10-19T08:56:14;26.15;;;5.88;;
13973;SDS011;7060;43.770;4.008;2023-10-19T08:58:44;17.63;;;4.85;;
13973;SDS011;7060;43.770;4.008;2023-10-19T09:01:17;17.38;;;4.07;;
13973;SDS011;7060;43.770;4.008;2023-10-19T09:03:46;17.73;;;4.57;;
13973;SDS011;7060;43.770;4.008;2023-10-19T09:06:15;14.48;;;4.00;;
13973;SDS011;7060;43.770;4.008;2023-10-19T09:08:46;14.75;;;4.43;;
13973;SDS011;7060;43.770;4.008;2023-10-19T09:11:15;16.58;;;4.18;;
13973;SDS011;7060;43.770;4.008;2023-10-19T09:13:49;14.38;;;4.80;;
13973;SDS011;7060;43.770;4.008;2023-10-19T09:16:19;18.65;;;4.22;;
13973;SDS011;7060;43.770;4.008;2023-10-19T09:18:49;14.20;;;3.72;;
13973;SDS011;7060;43.770;4.008;2023-10-19T09:21:20;11.35;;;3.65;;
13973;SDS011;7060;43.770;4.008;2023-10-19T09:23:56;13.07;;;3.72;;
13973;SDS011;7060;43.770;4.008;2023-10-19T09:26:25;13.50;;;3.50;;
13973;SDS011;7060;43.770;4.008;2023-10-19T09:28:56;16.40;;;4.03;;
13973;SDS011;7060;43.770;4.008;2023-10-19T09:31:26;13.48;;;4.13;;
13973;SDS011;7060;43.770;4.008;2023-10-19T09:33:56;11.48;;;4.03;;
13973;SDS011;7060;43.770;4.008;2023-10-19T09:36:26;12.25;;;3.65;;
13973;SDS011;7060;43.770;4.008;2023-10-19T09:38:57;13.80;;;3.63;;
13973;SDS011;7060;43.770;4.008;2023-10-19T09:41:26;12.15;;;4.00;;
13973;SDS011;7060;43.770;4.008;2023-10-19T09:44:01;11.05;;;3.00;;
13973;SDS011;7060;43.770;4.008;2023-10-19T09:46:38;11.50;;;3.63;;
13973;SDS011;7060;43.770;4.008;2023-10-19T09:49:09;15.63;;;3.85;;
13973;SDS011;7060;43.770;4.008;2023-10-19T09:51:41;11.90;;;3.22;;
13973;SDS011;7060;43.770;4.008;2023-10-19T09:54:34;8.00;;;2.42;;
13973;SDS011;7060;43.770;4.008;2023-10-19T09:57:16;9.55;;;2.90;;
13973;SDS011;7060;43.770;4.008;2023-10-19T09:59:54;11.93;;;2.72;;
13973;SDS011;7060;43.770;4.008;2023-10-19T10:02:38;12.57;;;2.60;;
13973;SDS011;7060;43.770;4.008;2023-10-19T10:08:32;11.00;;;2.30;;
13973;SDS011;7060;43.770;4.008;2023-10-19T10:11:13;8.75;;;1.58;;
13973;SDS011;7060;43.770;4.008;2023-10-19T10:13:46;6.95;;;1.17;;
13973;SDS011;7060;43.770;4.008;2023-10-19T10:16:21;9.52;;;1.38;;
13973;SDS011;7060;43.770;4.008;2023-10-19T10:18:54;8.80;;;1.20;;
13973;SDS011;7060;43.770;4.008;2023-10-19T10:21:26;9.43;;;1.13;;
13973;SDS011;7060;43.770;4.008;2023-10-19T10:23:56;11.43;;;2.40;;
13973;SDS011;7060;43.770;4.008;2023-10-19T10:26:27;7.38;;;1.20;;
13973;SDS011;7060;43.770;4.008;2023-10-19T10:29:08;7.47;;;1.40;;
13973;SDS011;7060;43.770;4.008;2023-10-19T10:31:43;7.45;;;1.40;;
13973;SDS011;7060;43.770;4.008;2023-10-19T10:37:12;13.75;;;1.48;;
13973;SDS011;7060;43.770;4.008;2023-10-19T10:39:42;11.63;;;1.20;;
13973;SDS011;7060;43.770;4.008;2023-10-19T10:42:12;9.82;;;1.10;;
13973;SDS011;7060;43.770;4.008;2023-10-19T10:44:41;7.53;;;1.70;;
13973;SDS011;7060;43.770;4.008;2023-10-19T10:47:16;7.15;;;1.55;;
13973;SDS011;7060;43.770;4.008;2023-10-19T10:49:49;9.38;;;1.70;;
13973;SDS011;7060;43.770;4.008;2023-10-19T10:52:23;18.63;;;1.73;;
13973;SDS011;7060;43.770;4.008;2023-10-19T10:54:53;10.70;;;1.55;;
13973;SDS011;7060;43.770;4.008;2023-10-19T10:57:22;9.73;;;1.50;;
13973;SDS011;7060;43.770;4.008;2023-10-19T11:02:44;12.23;;;2.15;;
13973;SDS011;7060;43.770;4.008;2023-10-19T11:05:16;8.18;;;1.95;;
13973;SDS011;7060;43.770;4.008;2023-10-19T11:08:05;8.75;;;1.67;;
13973;SDS011;7060;43.770;4.008;2023-10-19T11:10:36;11.85;;;1.58;;
13973;SDS011;7060;43.770;4.008;2023-10-19T11:13:06;7.05;;;1.83;;
13973;SDS011;7060;43.770;4.008;2023-10-19T11:15:36;9.73;;;1.15;;
13973;SDS011;7060;43.770;4.008;2023-10-19T11:18:07;11.68;;;1.95;;
13973;SDS011;7060;43.770;4.008;2023-10-19T11:20:36;7.28;;;1.42;;
13973;SDS011;7060;43.770;4.008;2023-10-19T11:23:05;11.80;;;1.55;;
13973;SDS011;7060;43.770;4.008;2023-10-19T11:25:34;5.78;;;1.52;;
13973;SDS011;7060;43.770;4.008;2023-10-19T11:28:03;9.38;;;1.95;;
13973;SDS011;7060;43.770;4.008;2023-10-19T11:30:46;10.93;;;2.08;;
13973;SDS011;7060;43.770;4.008;2023-10-19T11:33:17;7.85;;;1.20;;
13973;SDS011;7060;43.770;4.008;2023-10-19T11:35:51;7.35;;;1.10;;
13973;SDS011;7060;43.770;4.008;2023-10-19T11:38:20;11.93;;;1.50;;
13973;SDS011;7060;43.770;4.008;2023-10-19T11:40:49;12.95;;;1.63;;
13973;SDS011;7060;43.770;4.008;2023-10-19T11:43:19;9.75;;;1.45;;
13973;SDS011;7060;43.770;4.008;2023-10-19T11:45:48;12.43;;;1.60;;
13973;SDS011;7060;43.770;4.008;2023-10-19T11:48:20;8.68;;;1.85;;
13973;SDS011;7060;43.770;4.008;2023-10-19T11:50:49;9.68;;;1.25;;
13973;SDS011;7060;43.770;4.008;2023-10-19T11:53:18;8.32;;;1.30;;
13973;SDS011;7060;43.770;4.008;2023-10-19T11:55:47;11.40;;;2.25;;
13973;SDS011;7060;43.770;4.008;2023-10-19T11:58:16;8.60;;;1.40;;
13973;SDS011;7060;43.770;4.008;2023-10-19T12:00:45;9.70;;;1.80;;
13973;SDS011;7060;43.770;4.008;2023-10-19T12:03:14;8.52;;;1.70;;
13973;SDS011;7060;43.770;4.008;2023-10-19T12:05:45;11.00;;;1.63;;
13973;SDS011;7060;43.770;4.008;2023-10-19T12:08:14;7.68;;;1.95;;
13973;SDS011;7060;43.770;4.008;2023-10-19T12:10:43;10.43;;;1.52;;
13973;SDS011;7060;43.770;4.008;2023-10-19T12:13:11;10.35;;;1.88;;
13973;SDS011;7060;43.770;4.008;2023-10-19T12:15:40;13.15;;;2.13;;
13973;SDS011;7060;43.770;4.008;2023-10-19T12:18:19;13.80;;;1.90;;
13973;SDS011;7060;43.770;4.008;2023-10-19T12:20:49;12.90;;;2.35;;
13973;SDS011;7060;43.770;4.008;2023-10-19T12:23:23;13.27;;;2.05;;
13973;SDS011;7060;43.770;4.008;2023-10-19T12:25:52;12.23;;;1.80;;
13973;SDS011;7060;43.770;4.008;2023-10-19T12:28:23;8.20;;;1.90;;
13973;SDS011;7060;43.770;4.008;2023-10-19T12:30:52;10.90;;;2.05;;
13973;SDS011;7060;43.770;4.008;2023-10-19T12:33:23;15.82;;;2.30;;
13973;SDS011;7060;43.770;4.008;2023-10-19T12:35:55;10.40;;;1.80;;
13973;SDS011;7060;43.770;4.008;2023-10-19T12:38:24;16.40;;;2.55;;
13973;SDS011;7060;43.770;4.008;2023-10-19T12:40:54;18.80;;;2.47;;
13973;SDS011;7060;43.770;4.008;2023-10-19T12:43:23;11.93;;;1.83;;
13973;SDS011;7060;43.770;4.008;2023-10-19T12:45:52;13.10;;;2.30;;
13973;SDS011;7060;43.770;4.008;2023-10-19T12:48:21;12.93;;;2.35;;
13973;SDS011;7060;43.770;4.008;2023-10-19T12:50:59;12.38;;;1.88;;
13973;SDS011;7060;43.770;4.008;2023-10-19T12:53:29;11.48;;;2.88;;
13973;SDS011;7060;43.770;4.008;2023-10-19T12:56:02;8.20;;;1.40;;
13973;SDS011;7060;43.770;4.008;2023-10-19T13:07:43;12.40;;;1.48;;
13973;SDS011;7060;43.770;4.008;2023-10-19T13:10:12;12.82;;;2.03;;
13973;SDS011;7060;43.770;4.008;2023-10-19T13:12:41;11.07;;;2.00;;
13973;SDS011;7060;43.770;4.008;2023-10-19T13:15:09;14.55;;;2.25;;
13973;SDS011;7060;43.770;4.008;2023-10-19T13:17:40;7.78;;;1.63;;
13973;SDS011;7060;43.770;4.008;2023-10-19T13:20:10;14.25;;;1.58;;
13973;SDS011;7060;43.770;4.008;2023-10-19T13:22:46;12.48;;;2.50;;
13973;SDS011;7060;43.770;4.008;2023-10-19T13:25:15;8.93;;;1.70;;
13973;SDS011;7060;43.770;4.008;2023-10-19T13:27:44;9.13;;;1.70;;
13973;SDS011;7060;43.770;4.008;2023-10-19T13:30:14;14.88;;;1.65;;
13973;SDS011;7060;43.770;4.008;2023-10-19T13:32:43;9.35;;;1.73;;
13973;SDS011;7060;43.770;4.008;2023-10-19T13:35:13;6.70;;;1.33;;
13973;SDS011;7060;43.770;4.008;2023-10-19T13:37:42;18.98;;;2.20;;
13973;SDS011;7060;43.770;4.008;2023-10-19T13:40:12;10.15;;;1.80;;
13973;SDS011;7060;43.770;4.008;2023-10-19T13:42:41;14.57;;;2.80;;
13973;SDS011;7060;43.770;4.008;2023-10-19T13:45:13;12.50;;;2.20;;
13973;SDS011;7060;43.770;4.008;2023-10-19T13:47:42;10.73;;;2.20;;
13973;SDS011;7060;43.770;4.008;2023-10-19T13:50:11;12.05;;;2.53;;
13973;SDS011;7060;43.770;4.008;2023-10-19T13:52:40;9.10;;;2.10;;
13973;SDS011;7060;43.770;4.008;2023-10-19T13:55:09;19.75;;;3.05;;
13973;SDS011;7060;43.770;4.008;2023-10-19T13:57:41;11.45;;;2.47;;
13973;SDS011;7060;43.770;4.008;2023-10-19T14:00:10;10.77;;;2.63;;
13973;SDS011;7060;43.770;4.008;2023-10-19T14:02:46;13.35;;;2.20;;
13973;SDS011;7060;43.770;4.008;2023-10-19T14:05:18;11.52;;;2.53;;
13973;SDS011;7060;43.770;4.008;2023-10-19T14:07:47;10.90;;;2.13;;
13973;SDS011;7060;43.770;4.008;2023-10-19T14:10:17;15.25;;;2.33;;
13973;SDS011;7060;43.770;4.008;2023-10-19T14:12:50;14.90;;;2.42;;
13973;SDS011;7060;43.770;4.008;2023-10-19T14:15:21;15.50;;;2.45;;
13973;SDS011;7060;43.770;4.008;2023-10-19T14:17:50;9.35;;;1.67;;
13973;SDS011;7060;43.770;4.008;2023-10-19T14:20:20;10.52;;;2.25;;
13973;SDS011;7060;43.770;4.008;2023-10-19T14:22:50;9.63;;;1.48;;
13973;SDS011;7060;43.770;4.008;2023-10-19T14:25:21;9.63;;;2.40;;
13973;SDS011;7060;43.770;4.008;2023-10-19T14:27:54;9.40;;;1.80;;
13973;SDS011;7060;43.770;4.008;2023-10-19T14:30:26;12.23;;;2.58;;
13973;SDS011;7060;43.770;4.008;2023-10-19T14:32:56;12.00;;;2.58;;
13973;SDS011;7060;43.770;4.008;2023-10-19T14:35:25;18.92;;;2.78;;
13973;SDS011;7060;43.770;4.008;2023-10-19T14:37:54;10.15;;;2.03;;
13973;SDS011;7060;43.770;4.008;2023-10-19T14:40:27;14.27;;;2.55;;
13973;SDS011;7060;43.770;4.008;2023-10-19T14:42:58;11.57;;;2.75;;
13973;SDS011;7060;43.770;4.008;2023-10-19T14:45:28;11.20;;;2.28;;
13973;SDS011;7060;43.770;4.008;2023-10-19T14:47:57;10.52;;;2.28;;
13973;SDS011;7060;43.770;4.008;2023-10-19T14:50:29;13.90;;;2.40;;
13973;SDS011;7060;43.770;4.008;2023-10-19T14:52:58;13.23;;;2.05;;
13973;SDS011;7060;43.770;4.008;2023-10-19T14:55:27;15.77;;;2.53;;
13973;SDS011;7060;43.770;4.008;2023-10-19T14:57:56;13.85;;;1.70;;
13973;SDS011;7060;43.770;4.008;2023-10-19T15:00:27;11.13;;;2.20;;
13973;SDS011;7060;43.770;4.008;2023-10-19T15:03:02;10.38;;;2.05;;
13973;SDS011;7060;43.770;4.008;2023-10-19T15:05:35;11.18;;;2.10;;
13973;SDS011;7060;43.770;4.008;2023-10-19T15:08:05;10.35;;;2.42;;
13973;SDS011;7060;43.770;4.008;2023-10-19T15:10:40;8.85;;;2.55;;
13973;SDS011;7060;43.770;4.008;2023-10-19T15:13:09;13.95;;;2.33;;
13973;SDS011;7060;43.770;4.008;2023-10-19T15:15:39;7.07;;;1.83;;
13973;SDS011;7060;43.770;4.008;2023-10-19T15:18:08;11.35;;;2.40;;
13973;SDS011;7060;43.770;4.008;2023-10-19T15:20:37;14.30;;;2.95;;
13973;SDS011;7060;43.770;4.008;2023-10-19T15:23:06;11.95;;;2.45;;
13973;SDS011;7060;43.770;4.008;2023-10-19T15:25:36;15.27;;;2.65;;
13973;SDS011;7060;43.770;4.008;2023-10-19T15:28:07;11.80;;;2.67;;
13973;SDS011;7060;43.770;4.008;2023-10-19T15:30:39;15.35;;;3.03;;
13973;SDS011;7060;43.770;4.008;2023-10-19T15:33:08;13.75;;;3.33;;
13973;SDS011;7060;43.770;4.008;2023-10-19T15:35:37;14.98;;;2.50;;
13973;SDS011;7060;43.770;4.008;2023-10-19T15:38:06;16.27;;;2.63;;
13973;SDS011;7060;43.770;4.008;2023-10-19T15:40:35;14.32;;;2.58;;
13973;SDS011;7060;43.770;4.008;2023-10-19T15:43:07;13.63;;;2.75;;
13973;SDS011;7060;43.770;4.008;2023-10-19T15:45:40;15.65;;;2.95;;
13973;SDS011;7060;43.770;4.008;2023-10-19T15:48:11;12.70;;;3.20;;
13973;SDS011;7060;43.770;4.008;2023-10-19T15:50:40;22.55;;;3.15;;
13973;SDS011;7060;43.770;4.008;2023-10-19T15:53:09;16.95;;;2.95;;
13973;SDS011;7060;43.770;4.008;2023-10-19T15:55:38;15.57;;;2.70;;
13973;SDS011;7060;43.770;4.008;2023-10-19T15:58:07;15.40;;;3.90;;
13973;SDS011;7060;43.770;4.008;2023-10-19T16:00:39;19.45;;;3.85;;
13973;SDS011;7060;43.770;4.008;2023-10-19T16:03:08;13.50;;;3.28;;
13973;SDS011;7060;43.770;4.008;2023-10-19T16:05:37;15.57;;;3.55;;
13973;SDS011;7060;43.770;4.008;2023-10-19T16:08:06;16.48;;;3.50;;
13973;SDS011;7060;43.770;4.008;2023-10-19T16:10:35;15.25;;;3.20;;
13973;SDS011;7060;43.770;4.008;2023-10-19T16:13:04;14.68;;;3.45;;
13973;SDS011;7060;43.770;4.008;2023-10-19T16:15:34;22.42;;;4.07;;
13973;SDS011;7060;43.770;4.008;2023-10-19T16:18:05;24.30;;;4.93;;
13973;SDS011;7060;43.770;4.008;2023-10-19T16:20:34;17.92;;;3.50;;
13973;SDS011;7060;43.770;4.008;2023-10-19T16:23:06;21.05;;;3.55;;
13973;SDS011;7060;43.770;4.008;2023-10-19T16:25:36;18.98;;;4.70;;
13973;SDS011;7060;43.770;4.008;2023-10-19T16:28:05;21.02;;;3.72;;
13973;SDS011;7060;43.770;4.008;2023-10-19T16:30:35;24.10;;;4.53;;
13973;SDS011;7060;43.770;4.008;2023-10-19T16:33:05;15.93;;;5.05;;
13973;SDS011;7060;43.770;4.008;2023-10-19T16:35:34;22.13;;;4.38;;
13973;SDS011;7060;43.770;4.008;2023-10-19T16:38:06;19.63;;;4.43;;
13973;SDS011;7060;43.770;4.008;2023-10-19T16:40:39;26.02;;;4.53;;
13973;SDS011;7060;43.770;4.008;2023-10-19T16:43:08;23.92;;;4.78;;
13973;SDS011;7060;43.770;4.008;2023-10-19T16:45:37;25.40;;;4.78;;
13973;SDS011;7060;43.770;4.008;2023-10-19T16:48:07;22.55;;;4.30;;
13973;SDS011;7060;43.770;4.008;2023-10-19T16:50:37;20.95;;;4.60;;
13973;SDS011;7060;43.770;4.008;2023-10-19T16:53:06;22.92;;;4.53;;
13973;SDS011;7060;43.770;4.008;2023-10-19T16:55:35;22.98;;;4.38;;
13973;SDS011;7060;43.770;4.008;2023-10-19T16:58:03;21.17;;;4.60;;
13973;SDS011;7060;43.770;4.008;2023-10-19T17:00:33;21.20;;;4.35;;
13973;SDS011;7060;43.770;4.008;2023-10-19T17:03:08;17.98;;;3.67;;
13973;SDS011;7060;43.770;4.008;2023-10-19T17:05:37;24.15;;;4.57;;
13973;SDS011;7060;43.770;4.008;2023-10-19T17:08:07;23.30;;;4.57;;
13973;SDS011;7060;43.770;4.008;2023-10-19T17:10:36;24.08;;;4.60;;
13973;SDS011;7060;43.770;4.008;2023-10-19T17:13:06;26.35;;;5.40;;
13973;SDS011;7060;43.770;4.008;2023-10-19T17:15:34;29.88;;;4.53;;
13973;SDS011;7060;43.770;4.008;2023-10-19T17:18:05;29.35;;;4.45;;
13973;SDS011;7060;43.770;4.008;2023-10-19T17:20:36;27.35;;;5.10;;
13973;SDS011;7060;43.770;4.008;2023-10-19T17:23:08;16.95;;;3.78;;
13973;SDS011;7060;43.770;4.008;2023-10-19T17:25:37;19.88;;;4.85;;
13973;SDS011;7060;43.770;4.008;2023-10-19T17:28:07;24.00;;;4.88;;
13973;SDS011;7060;43.770;4.008;2023-10-19T17:30:35;15.75;;;3.63;;
13973;SDS011;7060;43.770;4.008;2023-10-19T17:33:06;21.95;;;4.82;;
13973;SDS011;7060;43.770;4.008;2023-10-19T17:35:39;26.33;;;5.20;;
13973;SDS011;7060;43.770;4.008;2023-10-19T17:38:09;23.65;;;4.70;;
13973;SDS011;7060;43.770;4.008;2023-10-19T17:40:39;22.83;;;4.75;;
13973;SDS011;7060;43.770;4.008;2023-10-19T17:43:07;17.45;;;4.57;;
13973;SDS011;7060;43.770;4.008;2023-10-19T17:45:38;27.17;;;5.32;;
13973;SDS011;7060;43.770;4.008;2023-10-19T17:48:12;23.73;;;5.20;;
13973;SDS011;7060;43.770;4.008;2023-10-19T17:50:43;24.23;;;4.35;;
13973;SDS011;7060;43.770;4.008;2023-10-19T17:53:12;24.58;;;4.80;;
13973;SDS011;7060;43.770;4.008;2023-10-19T17:55:41;25.17;;;4.72;;
13973;SDS011;7060;43.770;4.008;2023-10-19T17:58:09;25.13;;;4.07;;
13973;SDS011;7060;43.770;4.008;2023-10-19T18:00:39;21.20;;;4.47;;
13973;SDS011;7060;43.770;4.008;2023-10-19T18:03:09;26.75;;;5.30;;
13973;SDS011;7060;43.770;4.008;2023-10-19T18:05:44;28.85;;;5.05;;
13973;SDS011;7060;43.770;4.008;2023-10-19T18:08:14;29.17;;;5.80;;
13973;SDS011;7060;43.770;4.008;2023-10-19T18:10:44;23.23;;;4.55;;
13973;SDS011;7060;43.770;4.008;2023-10-19T18:13:13;25.73;;;4.88;;
13973;SDS011;7060;43.770;4.008;2023-10-19T18:15:43;25.90;;;5.45;;
13973;SDS011;7060;43.770;4.008;2023-10-19T18:18:24;22.83;;;5.18;;
13973;SDS011;7060;43.770;4.008;2023-10-19T18:27:57;21.98;;;4.72;;
13973;SDS011;7060;43.770;4.008;2023-10-19T18:30:27;33.15;;;6.05;;
13973;SDS011;7060;43.770;4.008;2023-10-19T18:32:56;24.23;;;4.47;;
13973;SDS011;7060;43.770;4.008;2023-10-19T18:35:24;25.83;;;4.63;;
13973;SDS011;7060;43.770;4.008;2023-10-19T18:37:54;20.83;;;5.13;;
13973;SDS011;7060;43.770;4.008;2023-10-19T18:40:22;30.38;;;4.93;;
13973;SDS011;7060;43.770;4.008;2023-10-19T18:43:01;22.23;;;4.65;;
13973;SDS011;7060;43.770;4.008;2023-10-19T18:45:30;25.20;;;4.57;;
13973;SDS011;7060;43.770;4.008;2023-10-19T18:48:00;22.50;;;5.53;;
13973;SDS011;7060;43.770;4.008;2023-10-19T18:50:29;37.05;;;5.15;;
13973;SDS011;7060;43.770;4.008;2023-10-19T18:53:00;27.17;;;5.00;;
13973;SDS011;7060;43.770;4.008;2023-10-19T18:55:31;24.05;;;4.10;;
13973;SDS011;7060;43.770;4.008;2023-10-19T18:57:59;25.73;;;4.43;;
13973;SDS011;7060;43.770;4.008;2023-10-19T19:00:30;25.97;;;4.90;;
13973;SDS011;7060;43.770;4.008;2023-10-19T19:02:59;21.88;;;3.95;;
13973;SDS011;7060;43.770;4.008;2023-10-19T19:05:28;25.17;;;6.13;;
13973;SDS011;7060;43.770;4.008;2023-10-19T19:08:00;24.20;;;4.47;;
13973;SDS011;7060;43.770;4.008;2023-10-19T19:10:29;29.07;;;5.70;;
13973;SDS011;7060;43.770;4.008;2023-10-19T19:13:02;33.10;;;5.63;;
13973;SDS011;7060;43.770;4.008;2023-10-19T19:15:32;21.27;;;4.18;;
13973;SDS011;7060;43.770;4.008;2023-10-19T19:18:02;20.67;;;4.43;;
13973;SDS011;7060;43.770;4.008;2023-10-19T19:20:32;20.02;;;4.55;;
13973;SDS011;7060;43.770;4.008;2023-10-19T19:23:01;21.75;;;4.35;;
13973;SDS011;7060;43.770;4.008;2023-10-19T19:25:35;25.43;;;4.50;;
13973;SDS011;7060;43.770;4.008;2023-10-19T19:28:06;24.87;;;4.47;;
13973;SDS011;7060;43.770;4.008;2023-10-19T19:30:35;28.40;;;4.80;;
13973;SDS011;7060;43.770;4.008;2023-10-19T19:33:05;21.47;;;5.43;;
13973;SDS011;7060;43.770;4.008;2023-10-19T19:35:35;22.37;;;4.43;;
13973;SDS011;7060;43.770;4.008;2023-10-19T19:38:04;25.10;;;5.20;;
13973;SDS011;7060;43.770;4.008;2023-10-19T19:40:34;19.77;;;4.07;;
13973;SDS011;7060;43.770;4.008;2023-10-19T19:43:03;26.63;;;4.57;;
13973;SDS011;7060;43.770;4.008;2023-10-19T19:45:34;23.83;;;4.43;;
13973;SDS011;7060;43.770;4.008;2023-10-19T19:48:10;23.70;;;3.93;;
13973;SDS011;7060;43.770;4.008;2023-10-19T19:50:40;24.60;;;3.87;;
13973;SDS011;7060;43.770;4.008;2023-10-19T19:53:09;20.63;;;3.13;;
13973;SDS011;7060;43.770;4.008;2023-10-19T19:55:40;24.03;;;4.60;;
13973;SDS011;7060;43.770;4.008;2023-10-19T19:58:09;27.93;;;4.77;;
13973;SDS011;7060;43.770;4.008;2023-10-19T20:00:40;29.00;;;4.73;;
13973;SDS011;7060;43.770;4.008;2023-10-19T20:03:09;31.63;;;4.90;;
13973;SDS011;7060;43.770;4.008;2023-10-19T20:05:39;30.40;;;4.35;;
13973;SDS011;7060;43.770;4.008;2023-10-19T20:08:08;25.40;;;4.53;;
13973;SDS011;7060;43.770;4.008;2023-10-19T20:10:39;26.57;;;4.17;;
13973;SDS011;7060;43.770;4.008;2023-10-19T20:13:10;26.67;;;4.23;;
13973;SDS011;7060;43.770;4.008;2023-10-19T20:15:42;13.90;;;3.57;;
13973;SDS011;7060;43.770;4.008;2023-10-19T20:18:11;22.60;;;4.00;;
13973;SDS011;7060;43.770;4.008;2023-10-19T20:20:40;23.52;;;4.10;;
13973;SDS011;7060;43.770;4.008;2023-10-19T20:23:09;22.63;;;3.53;;
13973;SDS011;7060;43.770;4.008;2023-10-19T20:25:38;30.25;;;4.25;;
13973;SDS011;7060;43.770;4.008;2023-10-19T20:28:07;21.37;;;4.47;;
13973;SDS011;7060;43.770;4.008;2023-10-19T20:30:36;24.93;;;4.13;;
13973;SDS011;7060;43.770;4.008;2023-10-19T20:33:07;18.20;;;4.00;;
13973;SDS011;7060;43.770;4.008;2023-10-19T20:35:39;25.77;;;3.42;;
13973;SDS011;7060;43.770;4.008;2023-10-19T20:38:08;18.73;;;3.97;;
13973;SDS011;7060;43.770;4.008;2023-10-19T20:40:39;23.83;;;4.63;;
13973;SDS011;7060;43.770;4.008;2023-10-19T20:43:08;23.77;;;4.45;;
13973;SDS011;7060;43.770;4.008;2023-10-19T20:45:40;26.67;;;4.13;;
13973;SDS011;7060;43.770;4.008;2023-10-19T20:48:11;22.13;;;4.03;;
13973;SDS011;7060;43.770;4.008;2023-10-19T20:50:40;17.38;;;3.90;;